sensor_id;sensor_type;location;lat;lon;timestamp;pressure;altitude;pressure_sealevel;temperature;humidity
14232;BME280;7200;52.194;9.900;2023-05-12T00:01:10;100606.50;;;15.65;100.00
14232;BME280;7200;52.194;9.900;2023-05-12T00:03:36;100600.56;;;15.44;100.00
14232;BME280;7200;52.194;9.900;2023-05-12T00:06:02;100611.28;;;15.42;100.00
14232;BME280;7200;52.194;9.900;2023-05-12T00:08:28;100621.63;;;15.48;100.00
14232;BME280;7200;52.194;9.900;2023-05-12T00:10:54;100621.56;;;15.32;100.00
14232;BME280;7200;52.194;9.900;2023-05-12T00:13:19;100639.75;;;15.40;100.00
14232;BME280;7200;52.194;9.900;2023-05-12T00:15:49;100640.88;;;15.52;100.00
14232;BME280;7200;52.194;9.900;2023-05-12T00:18:15;100630.84;;;15.41;100.00
14232;BME280;7200;52.194;9.900;2023-05-12T00:20:40;100625.25;;;15.30;100.00
14232;BME280;7200;52.194;9.900;2023-05-12T00:23:05;100645.84;;;15.42;100.00
14232;BME280;7200;52.194;9.900;2023-05-12T00:25:31;100653.97;;;15.56;100.00
14232;BME280;7200;52.194;9.900;2023-05-12T00:27:56;100661.38;;;15.67;100.00
14232;BME280;7200;52.194;9.900;2023-05-12T00:30:22;100649.97;;;15.65;100.00
14232;BME280;7200;52.194;9.900;2023-05-12T00:32:47;100651.31;;;15.56;100.00
14232;BME280;7200;52.194;9.900;2023-05-12T00:35:13;100644.44;;;15.52;100.00
14232;BME280;7200;52.194;9.900;2023-05-12T00:37:40;100650.25;;;15.43;100.00
14232;BME280;7200;52.194;9.900;2023-05-12T00:40:06;100653.91;;;15.41;100.00
14232;BME280;7200;52.194;9.900;2023-05-12T00:42:33;100666.63;;;15.51;100.00
14232;BME280;7200;52.194;9.900;2023-05-12T00:44:58;100666.13;;;15.45;100.00
14232;BME280;7200;52.194;9.900;2023-05-12T00:47:24;100673.09;;;15.63;100.00
14232;BME280;7200;52.194;9.900;2023-05-12T00:49:50;100682.84;;;15.80;100.00
14232;BME280;7200;52.194;9.900;2023-05-12T00:52:15;100675.63;;;15.82;100.00
14232;BME280;7200;52.194;9.900;2023-05-12T00:54:41;100671.72;;;15.89;100.00
14232;BME280;7200;52.194;9.900;2023-05-12T00:57:07;100665.38;;;15.92;100.00
14232;BME280;7200;52.194;9.900;2023-05-12T00:59:32;100659.38;;;15.88;100.00
14232;BME280;7200;52.194;9.900;2023-05-12T01:01:58;100621.78;;;15.45;100.00
14232;BME280;7200;52.194;9.900;2023-05-12T01:04:23;100620.16;;;15.25;100.00
14232;BME280;7200;52.194;9.900;2023-05-12T01:06:59;100630.19;;;15.20;100.00
14232;BME280;7200;52.194;9.900;2023-05-12T01:09:26;100645.13;;;15.23;100.00
14232;BME280;7200;52.194;9.900;2023-05-12T01:11:52;100669.78;;;15.42;100.00
14232;BME280;7200;52.194;9.900;2023-05-12T01:14:17;100673.75;;;15.51;100.00
14232;BME280;7200;52.194;9.900;2023-05-12T01:16:53;100663.13;;;15.51;100.00
14232;BME280;7200;52.194;9.900;2023-05-12T01:19:37;100619.19;;;14.93;100.00
14232;BME280;7200;52.194;9.900;2023-05-12T01:22:06;100635.38;;;14.88;100.00
14232;BME280;7200;52.194;9.900;2023-05-12T01:24:33;100651.00;;;14.94;100.00
14232;BME280;7200;52.194;9.900;2023-05-12T01:27:00;100649.44;;;14.90;100.00
14232;BME280;7200;52.194;9.900;2023-05-12T01:29:27;100681.16;;;15.11;100.00
14232;BME280;7200;52.194;9.900;2023-05-12T01:31:52;100683.25;;;15.22;100.00
14232;BME280;7200;52.194;9.900;2023-05-12T01:34:19;100697.03;;;15.30;100.00
14232;BME280;7200;52.194;9.900;2023-05-12T01:36:44;100708.56;;;15.46;100.00
14232;BME280;7200;52.194;9.900;2023-05-12T01:39:09;100705.59;;;15.52;100.00
14232;BME280;7200;52.194;9.900;2023-05-12T01:41:35;100682.25;;;15.24;100.00
14232;BME280;7200;52.194;9.900;2023-05-12T01:44:01;100671.00;;;15.19;100.00
14232;BME280;7200;52.194;9.900;2023-05-12T01:46:26;100660.06;;;15.08;100.00
14232;BME280;7200;52.194;9.900;2023-05-12T01:48:51;100659.81;;;14.95;100.00
14232;BME280;7200;52.194;9.900;2023-05-12T01:51:17;100680.22;;;15.12;100.00
14232;BME280;7200;52.194;9.900;2023-05-12T01:53:42;100689.13;;;15.28;100.00
14232;BME280;7200;52.194;9.900;2023-05-12T01:56:07;100695.59;;;15.40;100.00
14232;BME280;7200;52.194;9.900;2023-05-12T01:58:33;100690.91;;;15.45;100.00
14232;BME280;7200;52.194;9.900;2023-05-12T02:00:58;100682.00;;;15.29;100.00
14232;BME280;7200;52.194;9.900;2023-05-12T02:03:23;100682.69;;;15.32;100.00
14232;BME280;7200;52.194;9.900;2023-05-12T02:05:48;100696.53;;;15.39;100.00
14232;BME280;7200;52.194;9.900;2023-05-12T02:08:14;100685.50;;;15.29;100.00
14232;BME280;7200;52.194;9.900;2023-05-12T02:10:39;100674.50;;;15.02;100.00
14232;BME280;7200;52.194;9.900;2023-05-12T02:13:04;100648.50;;;14.74;100.00
14232;BME280;7200;52.194;9.900;2023-05-12T02:15:30;100676.84;;;14.91;100.00
14232;BME280;7200;52.194;9.900;2023-05-12T02:17:55;100698.59;;;15.16;100.00
14232;BME280;7200;52.194;9.900;2023-05-12T02:20:22;100700.16;;;15.21;100.00
14232;BME280;7200;52.194;9.900;2023-05-12T02:22:47;100682.25;;;15.07;100.00
14232;BME280;7200;52.194;9.900;2023-05-12T02:25:13;100685.69;;;15.09;100.00
14232;BME280;7200;52.194;9.900;2023-05-12T02:27:38;100703.66;;;15.21;100.00
14232;BME280;7200;52.194;9.900;2023-05-12T02:30:04;100691.53;;;15.15;100.00
14232;BME280;7200;52.194;9.900;2023-05-12T02:32:30;100676.16;;;15.05;100.00
14232;BME280;7200;52.194;9.900;2023-05-12T02:34:56;100679.97;;;14.99;100.00
14232;BME280;7200;52.194;9.900;2023-05-12T02:37:22;100691.94;;;15.08;100.00
14232;BME280;7200;52.194;9.900;2023-05-12T02:39:47;100669.59;;;15.12;100.00
14232;BME280;7200;52.194;9.900;2023-05-12T02:42:12;100725.69;;;15.41;100.00
14232;BME280;7200;52.194;9.900;2023-05-12T02:44:37;100654.38;;;14.81;100.00
14232;BME280;7200;52.194;9.900;2023-05-12T02:47:03;100679.38;;;14.94;100.00
14232;BME280;7200;52.194;9.900;2023-05-12T02:49:28;100695.53;;;15.07;100.00
14232;BME280;7200;52.194;9.900;2023-05-12T02:51:54;100682.94;;;14.93;100.00
14232;BME280;7200;52.194;9.900;2023-05-12T02:54:20;100684.75;;;15.10;100.00
14232;BME280;7200;52.194;9.900;2023-05-12T02:56:45;100733.75;;;15.56;100.00
14232;BME280;7200;52.194;9.900;2023-05-12T02:59:11;100659.09;;;15.77;100.00
14232;BME280;7200;52.194;9.900;2023-05-12T03:01:36;100650.66;;;15.18;100.00
14232;BME280;7200;52.194;9.900;2023-05-12T03:04:01;100644.44;;;15.02;100.00
14232;BME280;7200;52.194;9.900;2023-05-12T03:06:28;100659.59;;;15.17;100.00
14232;BME280;7200;52.194;9.900;2023-05-12T03:08:53;100626.00;;;14.81;100.00
14232;BME280;7200;52.194;9.900;2023-05-12T03:11:20;100629.34;;;14.67;100.00
14232;BME280;7200;52.194;9.900;2023-05-12T03:13:46;100659.56;;;14.82;100.00
14232;BME280;7200;52.194;9.900;2023-05-12T03:16:12;100664.34;;;14.93;100.00
14232;BME280;7200;52.194;9.900;2023-05-12T03:18:37;100677.31;;;14.99;100.00
14232;BME280;7200;52.194;9.900;2023-05-12T03:21:02;100679.97;;;14.99;100.00
14232;BME280;7200;52.194;9.900;2023-05-12T03:23:27;100680.16;;;14.96;100.00
14232;BME280;7200;52.194;9.900;2023-05-12T03:25:53;100676.72;;;14.94;100.00
14232;BME280;7200;52.194;9.900;2023-05-12T03:28:19;100675.94;;;14.92;100.00
14232;BME280;7200;52.194;9.900;2023-05-12T03:30:47;100685.28;;;14.99;100.00
14232;BME280;7200;52.194;9.900;2023-05-12T03:33:12;100703.22;;;15.13;100.00
14232;BME280;7200;52.194;9.900;2023-05-12T03:35:37;100693.34;;;15.15;100.00
14232;BME280;7200;52.194;9.900;2023-05-12T03:38:03;100674.44;;;15.04;100.00
14232;BME280;7200;52.194;9.900;2023-05-12T03:40:28;100677.31;;;14.99;100.00
14232;BME280;7200;52.194;9.900;2023-05-12T03:42:53;100701.78;;;15.06;100.00
14232;BME280;7200;52.194;9.900;2023-05-12T03:45:19;100708.50;;;14.95;100.00
14232;BME280;7200;52.194;9.900;2023-05-12T03:47:44;100702.56;;;15.08;100.00
14232;BME280;7200;52.194;9.900;2023-05-12T03:50:09;100705.53;;;15.19;100.00
14232;BME280;7200;52.194;9.900;2023-05-12T03:52:35;100709.75;;;15.23;100.00
14232;BME280;7200;52.194;9.900;2023-05-12T03:55:03;100704.31;;;15.09;100.00
14232;BME280;7200;52.194;9.900;2023-05-12T03:57:29;100707.31;;;15.01;100.00
14232;BME280;7200;52.194;9.900;2023-05-12T03:59:54;100706.72;;;14.96;100.00
14232;BME280;7200;52.194;9.900;2023-05-12T04:02:19;100728.03;;;15.12;100.00
14232;BME280;7200;52.194;9.900;2023-05-12T04:04:44;100709.13;;;15.01;100.00
14232;BME280;7200;52.194;9.900;2023-05-12T04:07:10;100685.94;;;14.87;100.00
14232;BME280;7200;52.194;9.900;2023-05-12T04:09:35;100717.03;;;15.02;100.00
14232;BME280;7200;52.194;9.900;2023-05-12T04:12:00;100713.53;;;15.02;100.00
14232;BME280;7200;52.194;9.900;2023-05-12T04:14:26;100728.56;;;15.01;100.00
14232;BME280;7200;52.194;9.900;2023-05-12T04:16:51;100742.44;;;15.08;100.00
14232;BME280;7200;52.194;9.900;2023-05-12T04:19:16;100735.88;;;15.15;100.00
14232;BME280;7200;52.194;9.900;2023-05-12T04:21:42;100743.84;;;15.32;100.00
14232;BME280;7200;52.194;9.900;2023-05-12T04:24:07;100743.44;;;15.40;100.00
14232;BME280;7200;52.194;9.900;2023-05-12T04:26:32;100742.53;;;15.41;100.00
14232;BME280;7200;52.194;9.900;2023-05-12T04:28:58;100727.72;;;15.18;100.00
14232;BME280;7200;52.194;9.900;2023-05-12T04:31:23;100749.56;;;15.25;100.00
14232;BME280;7200;52.194;9.900;2023-05-12T04:33:48;100747.28;;;15.17;100.00
14232;BME280;7200;52.194;9.900;2023-05-12T04:36:14;100762.31;;;15.35;100.00
14232;BME280;7200;52.194;9.900;2023-05-12T04:38:39;100758.94;;;15.32;100.00
14232;BME280;7200;52.194;9.900;2023-05-12T04:41:05;100738.34;;;15.18;100.00
14232;BME280;7200;52.194;9.900;2023-05-12T04:43:31;100734.59;;;15.05;100.00
14232;BME280;7200;52.194;9.900;2023-05-12T04:45:56;100752.66;;;15.15;100.00
14232;BME280;7200;52.194;9.900;2023-05-12T04:48:21;100771.38;;;15.31;100.00
14232;BME280;7200;52.194;9.900;2023-05-12T04:50:47;100782.53;;;15.38;100.00
14232;BME280;7200;52.194;9.900;2023-05-12T04:53:16;100790.28;;;15.60;100.00
14232;BME280;7200;52.194;9.900;2023-05-12T04:55:42;100790.13;;;15.63;100.00
14232;BME280;7200;52.194;9.900;2023-05-12T04:58:11;100772.16;;;15.51;100.00
14232;BME280;7200;52.194;9.900;2023-05-12T05:00:36;100775.03;;;15.46;100.00
14232;BME280;7200;52.194;9.900;2023-05-12T05:03:02;100771.69;;;15.43;100.00
14232;BME280;7200;52.194;9.900;2023-05-12T05:05:28;100777.78;;;15.45;100.00
14232;BME280;7200;52.194;9.900;2023-05-12T05:07:53;100783.81;;;15.48;100.00
14232;BME280;7200;52.194;9.900;2023-05-12T05:10:18;100802.94;;;15.72;100.00
14232;BME280;7200;52.194;9.900;2023-05-12T05:12:43;100796.72;;;15.73;100.00
14232;BME280;7200;52.194;9.900;2023-05-12T05:15:09;100784.34;;;15.55;100.00
14232;BME280;7200;52.194;9.900;2023-05-12T05:17:35;100784.34;;;15.55;100.00
14232;BME280;7200;52.194;9.900;2023-05-12T05:20:01;100788.41;;;15.62;100.00
14232;BME280;7200;52.194;9.900;2023-05-12T05:22:26;100808.59;;;15.84;100.00
14232;BME280;7200;52.194;9.900;2023-05-12T05:24:51;100810.38;;;16.01;100.00
14232;BME280;7200;52.194;9.900;2023-05-12T05:27:17;100808.69;;;16.15;100.00
14232;BME280;7200;52.194;9.900;2023-05-12T05:29:42;100794.88;;;16.09;100.00
14232;BME280;7200;52.194;9.900;2023-05-12T05:32:07;100812.66;;;16.24;100.00
14232;BME280;7200;52.194;9.900;2023-05-12T05:34:32;100818.63;;;16.45;100.00
14232;BME280;7200;52.194;9.900;2023-05-12T05:36:58;100816.16;;;16.58;100.00
14232;BME280;7200;52.194;9.900;2023-05-12T05:39:23;100820.69;;;16.72;100.00
14232;BME280;7200;52.194;9.900;2023-05-12T05:41:49;100811.31;;;16.65;100.00
14232;BME280;7200;52.194;9.900;2023-05-12T05:44:14;100819.69;;;16.90;100.00
14232;BME280;7200;52.194;9.900;2023-05-12T05:46:39;100793.91;;;16.75;100.00
14232;BME280;7200;52.194;9.900;2023-05-12T05:49:05;100781.94;;;16.66;100.00
14232;BME280;7200;52.194;9.900;2023-05-12T05:51:30;100793.13;;;16.89;100.00
14232;BME280;7200;52.194;9.900;2023-05-12T05:53:57;100807.13;;;17.08;100.00
14232;BME280;7200;52.194;9.900;2023-05-12T05:56:22;100808.81;;;17.25;100.00
14232;BME280;7200;52.194;9.900;2023-05-12T05:58:48;100807.25;;;17.37;100.00
14232;BME280;7200;52.194;9.900;2023-05-12T06:01:13;100805.94;;;17.44;100.00
14232;BME280;7200;52.194;9.900;2023-05-12T06:03:39;100809.09;;;17.51;100.00
14232;BME280;7200;52.194;9.900;2023-05-12T06:06:05;100762.97;;;17.19;100.00
14232;BME280;7200;52.194;9.900;2023-05-12T06:08:30;100767.69;;;17.29;100.00
14232;BME280;7200;52.194;9.900;2023-05-12T06:10:56;100774.66;;;17.32;100.00
14232;BME280;7200;52.194;9.900;2023-05-12T06:13:21;100755.59;;;17.24;100.00
14232;BME280;7200;52.194;9.900;2023-05-12T06:15:46;100778.59;;;17.41;100.00
14232;BME280;7200;52.194;9.900;2023-05-12T06:18:12;100767.53;;;17.47;100.00
14232;BME280;7200;52.194;9.900;2023-05-12T06:20:37;100765.03;;;17.44;100.00
14232;BME280;7200;52.194;9.900;2023-05-12T06:23:02;100757.41;;;17.38;100.00
14232;BME280;7200;52.194;9.900;2023-05-12T06:25:27;100769.69;;;17.40;100.00
14232;BME280;7200;52.194;9.900;2023-05-12T06:27:53;100768.91;;;17.54;100.00
14232;BME280;7200;52.194;9.900;2023-05-12T06:30:18;100770.50;;;17.57;100.00
14232;BME280;7200;52.194;9.900;2023-05-12T06:32:43;100768.97;;;17.52;100.00
14232;BME280;7200;52.194;9.900;2023-05-12T06:35:09;100768.50;;;17.60;100.00
14232;BME280;7200;52.194;9.900;2023-05-12T06:37:34;100747.34;;;17.43;100.00
14232;BME280;7200;52.194;9.900;2023-05-12T06:40:00;100745.16;;;17.49;100.00
14232;BME280;7200;52.194;9.900;2023-05-12T06:42:25;100739.13;;;17.46;100.00
14232;BME280;7200;52.194;9.900;2023-05-12T06:44:50;100739.13;;;17.46;100.00
14232;BME280;7200;52.194;9.900;2023-05-12T06:47:15;100742.38;;;17.51;100.00
14232;BME280;7200;52.194;9.900;2023-05-12T06:49:41;100743.44;;;17.48;100.00
14232;BME280;7200;52.194;9.900;2023-05-12T06:52:06;100760.88;;;17.68;100.00
14232;BME280;7200;52.194;9.900;2023-05-12T06:54:32;100772.00;;;17.91;100.00
14232;BME280;7200;52.194;9.900;2023-05-12T06:56:57;100746.88;;;17.50;100.00
14232;BME280;7200;52.194;9.900;2023-05-12T06:59:22;100747.88;;;17.34;100.00
14232;BME280;7200;52.194;9.900;2023-05-12T07:01:48;100760.63;;;17.28;100.00
14232;BME280;7200;52.194;9.900;2023-05-12T07:04:13;100772.13;;;17.59;100.00
14232;BME280;7200;52.194;9.900;2023-05-12T07:06:38;100744.16;;;17.22;100.00
14232;BME280;7200;52.194;9.900;2023-05-12T07:09:03;100772.78;;;17.48;100.00
14232;BME280;7200;52.194;9.900;2023-05-12T07:11:29;100780.34;;;17.70;100.00
14232;BME280;7200;52.194;9.900;2023-05-12T07:13:54;100761.34;;;17.61;100.00
14232;BME280;7200;52.194;9.900;2023-05-12T07:16:20;100775.75;;;18.03;100.00
14232;BME280;7200;52.194;9.900;2023-05-12T07:18:46;100754.25;;;18.33;100.00
14232;BME280;7200;52.194;9.900;2023-05-12T07:21:11;100747.84;;;18.36;100.00
14232;BME280;7200;52.194;9.900;2023-05-12T07:23:37;100734.91;;;18.29;100.00
14232;BME280;7200;52.194;9.900;2023-05-12T07:26:05;100726.56;;;18.48;100.00
14232;BME280;7200;52.194;9.900;2023-05-12T07:28:33;100709.53;;;18.22;100.00
14232;BME280;7200;52.194;9.900;2023-05-12T07:31:05;100710.38;;;18.23;100.00
14232;BME280;7200;52.194;9.900;2023-05-12T07:33:31;100716.38;;;18.26;100.00
14232;BME280;7200;52.194;9.900;2023-05-12T07:35:57;100717.53;;;18.37;100.00
14232;BME280;7200;52.194;9.900;2023-05-12T07:38:22;100725.03;;;18.44;100.00
14232;BME280;7200;52.194;9.900;2023-05-12T07:40:48;100717.97;;;18.43;100.00
14232;BME280;7200;52.194;9.900;2023-05-12T07:43:14;100718.97;;;18.55;100.00
14232;BME280;7200;52.194;9.900;2023-05-12T07:45:41;100700.19;;;18.15;100.00
14232;BME280;7200;52.194;9.900;2023-05-12T07:48:06;100747.53;;;18.55;100.00
14232;BME280;7200;52.194;9.900;2023-05-12T07:50:32;100725.78;;;18.46;100.00
14232;BME280;7200;52.194;9.900;2023-05-12T07:52:57;100712.84;;;18.40;100.00
14232;BME280;7200;52.194;9.900;2023-05-12T07:55:22;100735.53;;;18.75;100.00
14232;BME280;7200;52.194;9.900;2023-05-12T07:57:51;100714.75;;;18.93;100.00
14232;BME280;7200;52.194;9.900;2023-05-12T08:00:17;100711.38;;;19.03;100.00
14232;BME280;7200;52.194;9.900;2023-05-12T08:02:42;100718.75;;;19.00;100.00
14232;BME280;7200;52.194;9.900;2023-05-12T08:05:09;100698.47;;;18.56;100.00
14232;BME280;7200;52.194;9.900;2023-05-12T08:07:35;100721.94;;;18.78;100.00
14232;BME280;7200;52.194;9.900;2023-05-12T08:10:02;100703.22;;;18.65;100.00
14232;BME280;7200;52.194;9.900;2023-05-12T08:12:27;100704.81;;;18.67;100.00
14232;BME280;7200;52.194;9.900;2023-05-12T08:14:52;100695.22;;;18.65;100.00
14232;BME280;7200;52.194;9.900;2023-05-12T08:17:18;100701.75;;;18.74;100.00
14232;BME280;7200;52.194;9.900;2023-05-12T08:19:43;100679.88;;;18.54;100.00
14232;BME280;7200;52.194;9.900;2023-05-12T08:22:08;100697.72;;;18.81;100.00
14232;BME280;7200;52.194;9.900;2023-05-12T08:24:34;100681.63;;;18.68;100.00
14232;BME280;7200;52.194;9.900;2023-05-12T08:26:59;100694.44;;;18.90;100.00
14232;BME280;7200;52.194;9.900;2023-05-12T08:29:25;100716.00;;;19.14;100.00
14232;BME280;7200;52.194;9.900;2023-05-12T08:31:50;100671.13;;;18.92;100.00
14232;BME280;7200;52.194;9.900;2023-05-12T08:34:15;100658.94;;;18.88;100.00
14232;BME280;7200;52.194;9.900;2023-05-12T08:36:41;100657.03;;;19.03;100.00
14232;BME280;7200;52.194;9.900;2023-05-12T08:39:06;100660.25;;;19.21;100.00
14232;BME280;7200;52.194;9.900;2023-05-12T08:41:46;100667.56;;;19.32;100.00
14232;BME280;7200;52.194;9.900;2023-05-12T08:44:14;100681.38;;;19.77;100.00
14232;BME280;7200;52.194;9.900;2023-05-12T08:46:41;100626.53;;;19.82;100.00
14232;BME280;7200;52.194;9.900;2023-05-12T08:49:09;100650.91;;;19.91;100.00
14232;BME280;7200;52.194;9.900;2023-05-12T08:51:37;100626.13;;;19.63;100.00
14232;BME280;7200;52.194;9.900;2023-05-12T08:54:03;100622.81;;;19.72;100.00
14232;BME280;7200;52.194;9.900;2023-05-12T08:56:28;100614.13;;;20.06;100.00
14232;BME280;7200;52.194;9.900;2023-05-12T08:58:54;100594.97;;;19.75;100.00
14232;BME280;7200;52.194;9.900;2023-05-12T09:01:21;100607.16;;;19.79;100.00
14232;BME280;7200;52.194;9.900;2023-05-12T09:03:47;100619.03;;;19.88;100.00
14232;BME280;7200;52.194;9.900;2023-05-12T09:06:12;100658.25;;;20.50;100.00
14232;BME280;7200;52.194;9.900;2023-05-12T09:08:39;100622.09;;;20.55;100.00
14232;BME280;7200;52.194;9.900;2023-05-12T09:11:04;100589.59;;;20.60;100.00
14232;BME280;7200;52.194;9.900;2023-05-12T09:14:06;100596.63;;;20.85;100.00
14232;BME280;7200;52.194;9.900;2023-05-12T09:16:44;100589.97;;;20.42;100.00
14232;BME280;7200;52.194;9.900;2023-05-12T09:19:10;100588.66;;;20.48;100.00
14232;BME280;7200;52.194;9.900;2023-05-12T09:21:35;100582.94;;;20.53;100.00
14232;BME280;7200;52.194;9.900;2023-05-12T09:24:05;100594.69;;;20.87;100.00
14232;BME280;7200;52.194;9.900;2023-05-12T09:26:44;100589.59;;;21.07;100.00
14232;BME280;7200;52.194;9.900;2023-05-12T09:29:09;100584.19;;;20.84;100.00
14232;BME280;7200;52.194;9.900;2023-05-12T09:31:36;100617.44;;;20.82;100.00
14232;BME280;7200;52.194;9.900;2023-05-12T09:34:06;100622.09;;;20.79;100.00
14232;BME280;7200;52.194;9.900;2023-05-12T09:36:33;100615.97;;;20.53;100.00
14232;BME280;7200;52.194;9.900;2023-05-12T09:39:06;100637.53;;;20.76;100.00
14232;BME280;7200;52.194;9.900;2023-05-12T09:41:35;100614.69;;;21.06;100.00
14232;BME280;7200;52.194;9.900;2023-05-12T09:44:01;100597.22;;;20.89;100.00
14232;BME280;7200;52.194;9.900;2023-05-12T09:46:26;100587.47;;;20.88;100.00
14232;BME280;7200;52.194;9.900;2023-05-12T09:48:55;100580.97;;;20.79;100.00
14232;BME280;7200;52.194;9.900;2023-05-12T09:51:24;100578.38;;;21.24;100.00
14232;BME280;7200;52.194;9.900;2023-05-12T09:53:50;100559.47;;;21.14;100.00
14232;BME280;7200;52.194;9.900;2023-05-12T09:56:16;100581.78;;;21.37;100.00
14232;BME280;7200;52.194;9.900;2023-05-12T09:58:43;100568.22;;;21.05;100.00
14232;BME280;7200;52.194;9.900;2023-05-12T10:01:27;100589.59;;;21.18;100.00
14232;BME280;7200;52.194;9.900;2023-05-12T10:03:57;100584.22;;;21.07;100.00
14232;BME280;7200;52.194;9.900;2023-05-12T10:06:27;100606.31;;;21.33;100.00
14232;BME280;7200;52.194;9.900;2023-05-12T10:09:01;100597.91;;;21.60;100.00
14232;BME280;7200;52.194;9.900;2023-05-12T10:11:28;100579.47;;;21.33;100.00
14232;BME280;7200;52.194;9.900;2023-05-12T10:13:55;100597.66;;;21.29;100.00
14232;BME280;7200;52.194;9.900;2023-05-12T10:16:20;100545.44;;;20.99;100.00
14232;BME280;7200;52.194;9.900;2023-05-12T10:18:46;100538.72;;;21.05;100.00
14232;BME280;7200;52.194;9.900;2023-05-12T10:21:12;100534.94;;;21.08;100.00
14232;BME280;7200;52.194;9.900;2023-05-12T10:23:39;100551.78;;;20.98;100.00
14232;BME280;7200;52.194;9.900;2023-05-12T10:26:09;100539.81;;;20.91;100.00
14232;BME280;7200;52.194;9.900;2023-05-12T10:28:35;100517.13;;;20.73;100.00
14232;BME280;7200;52.194;9.900;2023-05-12T10:31:02;100506.28;;;20.74;100.00
14232;BME280;7200;52.194;9.900;2023-05-12T10:33:29;100505.56;;;20.95;100.00
14232;BME280;7200;52.194;9.900;2023-05-12T10:35:54;100510.78;;;20.74;100.00
14232;BME280;7200;52.194;9.900;2023-05-12T10:38:20;100514.09;;;21.00;100.00
14232;BME280;7200;52.194;9.900;2023-05-12T10:40:59;100500.22;;;20.95;100.00
14232;BME280;7200;52.194;9.900;2023-05-12T10:43:36;100509.47;;;20.79;100.00
14232;BME280;7200;52.194;9.900;2023-05-12T10:51:27;100481.41;;;20.72;100.00
14232;BME280;7200;52.194;9.900;2023-05-12T10:53:59;100497.53;;;21.06;100.00
14232;BME280;7200;52.194;9.900;2023-05-12T10:59:24;100466.31;;;21.05;100.00
14232;BME280;7200;52.194;9.900;2023-05-12T11:04:59;100470.19;;;21.46;100.00
14232;BME280;7200;52.194;9.900;2023-05-12T11:07:27;100529.09;;;21.59;100.00
14232;BME280;7200;52.194;9.900;2023-05-12T11:09:55;100527.16;;;21.61;100.00
14232;BME280;7200;52.194;9.900;2023-05-12T11:12:21;100496.91;;;21.48;100.00
14232;BME280;7200;52.194;9.900;2023-05-12T11:14:46;100495.69;;;21.52;100.00
14232;BME280;7200;52.194;9.900;2023-05-12T11:17:12;100493.44;;;21.68;100.00
14232;BME280;7200;52.194;9.900;2023-05-12T11:19:39;100528.72;;;22.07;100.00
14232;BME280;7200;52.194;9.900;2023-05-12T11:22:05;100528.06;;;22.15;100.00
14232;BME280;7200;52.194;9.900;2023-05-12T11:24:35;100500.22;;;22.27;100.00
14232;BME280;7200;52.194;9.900;2023-05-12T11:27:02;100463.41;;;22.49;100.00
14232;BME280;7200;52.194;9.900;2023-05-12T11:29:28;100492.44;;;22.45;100.00
14232;BME280;7200;52.194;9.900;2023-05-12T11:31:54;100549.91;;;22.75;100.00
14232;BME280;7200;52.194;9.900;2023-05-12T11:34:24;100529.94;;;22.68;100.00
14232;BME280;7200;52.194;9.900;2023-05-12T11:36:52;100490.16;;;22.92;100.00
14232;BME280;7200;52.194;9.900;2023-05-12T11:39:21;100484.28;;;23.49;100.00
14232;BME280;7200;52.194;9.900;2023-05-12T11:41:47;100447.50;;;22.88;100.00
14232;BME280;7200;52.194;9.900;2023-05-12T11:44:21;100470.31;;;22.93;100.00
14232;BME280;7200;52.194;9.900;2023-05-12T11:47:01;100444.34;;;23.04;100.00
14232;BME280;7200;52.194;9.900;2023-05-12T11:49:29;100452.66;;;23.01;100.00
14232;BME280;7200;52.194;9.900;2023-05-12T11:51:56;100484.88;;;23.12;100.00
14232;BME280;7200;52.194;9.900;2023-05-12T11:54:23;100443.69;;;23.31;100.00
14232;BME280;7200;52.194;9.900;2023-05-12T11:56:50;100422.88;;;23.43;100.00
14232;BME280;7200;52.194;9.900;2023-05-12T12:01:52;100438.75;;;23.26;100.00
14232;BME280;7200;52.194;9.900;2023-05-12T12:04:17;100433.66;;;22.92;100.00
14232;BME280;7200;52.194;9.900;2023-05-12T12:06:43;100402.63;;;22.58;100.00
14232;BME280;7200;52.194;9.900;2023-05-12T12:09:09;100422.72;;;22.32;100.00
14232;BME280;7200;52.194;9.900;2023-05-12T12:11:34;100429.13;;;22.62;100.00
14232;BME280;7200;52.194;9.900;2023-05-12T12:14:00;100451.06;;;23.29;100.00
14232;BME280;7200;52.194;9.900;2023-05-12T12:16:28;100393.31;;;23.92;96.05
14232;BME280;7200;52.194;9.900;2023-05-12T12:18:54;100439.69;;;24.05;99.04
14232;BME280;7200;52.194;9.900;2023-05-12T12:21:20;100417.09;;;23.57;100.00
14232;BME280;7200;52.194;9.900;2023-05-12T12:23:47;100449.16;;;23.60;100.00
14232;BME280;7200;52.194;9.900;2023-05-12T12:26:12;100476.00;;;24.10;100.00
14232;BME280;7200;52.194;9.900;2023-05-12T12:28:44;100485.75;;;24.51;100.00
14232;BME280;7200;52.194;9.900;2023-05-12T12:31:09;100333.91;;;24.78;88.63
14232;BME280;7200;52.194;9.900;2023-05-12T12:33:35;100327.59;;;24.87;84.63
14232;BME280;7200;52.194;9.900;2023-05-12T12:36:00;100385.50;;;24.93;88.46
14232;BME280;7200;52.194;9.900;2023-05-12T12:38:25;100325.72;;;25.15;81.10
14232;BME280;7200;52.194;9.900;2023-05-12T12:40:51;100311.25;;;25.06;81.35
14232;BME280;7200;52.194;9.900;2023-05-12T12:43:16;100247.97;;;25.19;73.95
14232;BME280;7200;52.194;9.900;2023-05-12T12:45:41;100187.09;;;25.06;70.03
14232;BME280;7200;52.194;9.900;2023-05-12T12:48:07;100236.94;;;25.30;71.07
14232;BME280;7200;52.194;9.900;2023-05-12T12:50:34;100320.13;;;24.81;82.57
14232;BME280;7200;52.194;9.900;2023-05-12T12:53:00;100277.50;;;25.02;77.45
14232;BME280;7200;52.194;9.900;2023-05-12T12:55:26;100413.25;;;24.85;89.36
14232;BME280;7200;52.194;9.900;2023-05-12T12:57:51;100379.91;;;24.76;88.31
14232;BME280;7200;52.194;9.900;2023-05-12T13:00:17;100337.22;;;24.90;84.67